createdAt,value
2018-08-06T00:01:29.340Z,23.20
2018-08-06T00:03:56.456Z,23.20
2018-08-06T00:06:23.500Z,23.30
2018-08-06T00:08:50.626Z,23.30
2018-08-06T00:11:17.840Z,23.30
2018-08-06T00:13:45.844Z,23.20
2018-08-06T00:18:40.113Z,23.00
2018-08-06T00:21:07.971Z,23.10
2018-08-06T00:23:35.369Z,23.20
2018-08-06T00:28:29.799Z,23.20
2018-08-06T00:30:57.825Z,23.10
2018-08-06T00:33:24.931Z,23.10
2018-08-06T00:35:51.948Z,23.10
2018-08-06T00:38:19.057Z,23.20
2018-08-06T00:40:46.146Z,23.20
2018-08-06T00:43:14.012Z,23.20
2018-08-06T00:45:41.110Z,23.20
2018-08-06T00:48:08.207Z,23.10
2018-08-06T00:50:35.806Z,23.00
2018-08-06T00:55:42.393Z,23.10
2018-08-06T00:58:09.434Z,23.20
2018-08-06T01:00:37.379Z,23.20
2018-08-06T01:03:04.489Z,23.20
2018-08-06T01:05:31.518Z,23.20
2018-08-06T01:07:58.619Z,23.20
2018-08-06T01:10:26.026Z,23.00
2018-08-06T01:12:53.080Z,22.90
2018-08-06T01:15:20.147Z,22.90
2018-08-06T01:17:47.245Z,22.90
2018-08-06T01:20:14.318Z,22.90
2018-08-06T01:22:41.330Z,22.90
2018-08-06T01:25:08.401Z,22.80
2018-08-06T01:27:35.433Z,22.90
2018-08-06T01:30:03.006Z,22.80
2018-08-06T01:32:30.077Z,22.60
2018-08-06T01:34:57.172Z,22.60
2018-08-06T01:37:24.413Z,22.60
2018-08-06T01:39:51.693Z,22.60
2018-08-06T01:42:18.713Z,22.70
2018-08-06T01:44:45.732Z,22.70
2018-08-06T01:47:13.522Z,22.70
2018-08-06T01:49:40.530Z,22.70
2018-08-06T01:52:07.555Z,22.80
2018-08-06T01:54:34.998Z,22.90
2018-08-06T01:57:02.095Z,22.80
2018-08-06T01:59:29.111Z,22.70
2018-08-06T02:01:56.204Z,22.70
2018-08-06T02:04:23.224Z,22.70
2018-08-06T02:06:50.993Z,22.70
2018-08-06T02:09:18.060Z,22.60
2018-08-06T02:14:24.597Z,22.40
2018-08-06T02:16:51.707Z,22.50
2018-08-06T02:19:19.223Z,22.40
2018-08-06T02:21:46.734Z,22.30
2018-08-06T02:26:41.750Z,22.20
2018-08-06T02:29:08.853Z,22.20
2018-08-06T02:31:35.855Z,22.20
2018-08-06T02:34:02.910Z,22.20
2018-08-06T02:36:30.142Z,22.30
2018-08-06T02:38:57.162Z,22.30
2018-08-06T02:41:25.032Z,22.30
2018-08-06T02:43:52.107Z,22.20
2018-08-06T02:46:19.138Z,22.30
2018-08-06T02:51:13.330Z,22.20
2018-08-06T02:53:40.373Z,22.10
2018-08-06T02:56:07.397Z,22.10
2018-08-06T02:58:34.498Z,22.10
2018-08-06T03:01:01.523Z,22.10
2018-08-06T03:03:28.569Z,22.20
2018-08-06T03:08:23.636Z,22.20
2018-08-06T03:10:51.620Z,22.10
2018-08-06T03:13:18.719Z,22.10
2018-08-06T03:15:45.743Z,22.10
2018-08-06T03:18:13.735Z,22.10
2018-08-06T03:20:40.799Z,22.00
2018-08-06T03:25:46.380Z,22.00
2018-08-06T03:28:13.454Z,22.10
2018-08-06T03:30:40.521Z,22.10
2018-08-06T03:33:07.624Z,22.10
2018-08-06T03:35:34.659Z,22.10
2018-08-06T03:38:01.683Z,22.00
2018-08-06T03:40:29.507Z,21.90
2018-08-06T03:42:56.608Z,21.90
2018-08-06T03:45:23.630Z,21.90
2018-08-06T03:47:50.684Z,21.90
2018-08-06T03:50:18.063Z,21.80
2018-08-06T03:52:46.127Z,21.90
2018-08-06T03:55:13.808Z,21.80
2018-08-06T03:57:41.531Z,21.80
2018-08-06T04:00:08.566Z,21.70
2018-08-06T04:02:35.682Z,21.70
2018-08-06T04:05:04.132Z,21.70
2018-08-06T04:07:32.137Z,21.70
2018-08-06T04:09:59.582Z,21.60
2018-08-06T04:12:26.702Z,21.60
2018-08-06T04:14:53.715Z,21.70
2018-08-06T04:17:20.819Z,21.70
2018-08-06T04:22:15.043Z,21.60
2018-08-06T04:24:44.148Z,21.50
2018-08-06T04:27:11.290Z,21.60
2018-08-06T04:29:38.304Z,21.60
2018-08-06T04:32:05.385Z,21.60
2018-08-06T04:34:32.451Z,21.60
2018-08-06T04:36:59.894Z,21.60
2018-08-06T04:39:26.978Z,21.60
2018-08-06T04:44:32.489Z,21.60
2018-08-06T04:46:59.487Z,21.70
2018-08-06T04:49:26.494Z,21.60
2018-08-06T04:51:53.538Z,21.70
2018-08-06T04:54:21.144Z,21.70
2018-08-06T04:56:48.164Z,21.60
2018-08-06T04:59:15.379Z,21.70
2018-08-06T05:01:42.387Z,21.70
2018-08-06T05:04:09.388Z,21.70
2018-08-06T05:06:36.973Z,21.70
2018-08-06T05:09:03.978Z,21.90
2018-08-06T05:11:31.000Z,21.80
2018-08-06T05:18:52.279Z,22.10
2018-08-06T05:21:19.315Z,22.00
2018-08-06T05:23:46.326Z,21.90
2018-08-06T05:26:13.334Z,22.00
2018-08-06T05:28:40.412Z,21.90
2018-08-06T05:33:34.483Z,22.00
2018-08-06T05:36:01.563Z,22.10
2018-08-06T05:38:28.580Z,21.90
2018-08-06T05:40:55.624Z,21.80
2018-08-06T05:43:22.669Z,21.70
2018-08-06T05:45:49.659Z,21.70
2018-08-06T05:48:16.659Z,21.60
2018-08-06T05:50:43.794Z,21.70
2018-08-06T05:53:11.757Z,21.90
2018-08-06T05:55:38.756Z,21.50
2018-08-06T05:58:05.795Z,21.90
2018-08-06T06:03:11.354Z,22.20
2018-08-06T06:05:38.345Z,22.50
2018-08-06T06:08:05.936Z,22.80
2018-08-06T06:10:32.950Z,23.00
2018-08-06T06:12:59.975Z,23.10
2018-08-06T06:15:27.007Z,23.40
2018-08-06T06:17:54.131Z,23.50
2018-08-06T06:22:48.971Z,23.90
2018-08-06T06:25:16.049Z,23.50
2018-08-06T06:27:43.158Z,23.60
2018-08-06T06:30:10.994Z,23.40
2018-08-06T06:32:38.168Z,23.20
2018-08-06T06:35:06.057Z,23.30
2018-08-06T06:37:34.588Z,23.30
2018-08-06T06:40:01.683Z,23.50
2018-08-06T06:42:29.086Z,23.50
2018-08-06T06:44:56.972Z,23.70
2018-08-06T06:47:24.118Z,24.10
2018-08-06T06:49:51.986Z,24.10
2018-08-06T06:52:19.012Z,24.30
2018-08-06T06:54:46.085Z,24.20
2018-08-06T06:57:13.193Z,24.30
2018-08-06T06:59:40.258Z,24.90
2018-08-06T07:02:07.392Z,25.20
2018-08-06T07:04:34.425Z,25.30
2018-08-06T07:07:01.763Z,24.90
2018-08-06T07:14:39.461Z,25.90
2018-08-06T07:17:07.166Z,26.20
2018-08-06T07:19:34.224Z,26.40
2018-08-06T07:22:01.305Z,26.50
2018-08-06T07:24:28.413Z,26.10
2018-08-06T07:26:55.441Z,26.20
2018-08-06T07:29:22.630Z,26.30
2018-08-06T07:36:44.021Z,26.30
2018-08-06T07:39:11.035Z,26.20
2018-08-06T07:41:38.807Z,26.40
2018-08-06T07:44:06.006Z,26.80
2018-08-06T07:46:33.240Z,26.60
2018-08-06T07:49:00.275Z,27.10
2018-08-06T07:51:27.387Z,27.40
2018-08-06T07:53:54.439Z,27.10
2018-08-06T07:56:22.056Z,27.10
2018-08-06T07:58:49.237Z,26.90
2018-08-06T08:01:16.934Z,27.10
2018-08-06T08:03:43.982Z,27.30
2018-08-06T08:06:11.076Z,27.70
2018-08-06T08:08:38.201Z,28.00
2018-08-06T08:11:05.227Z,28.20
2018-08-06T08:13:32.295Z,28.30
2018-08-06T08:16:00.279Z,28.30
2018-08-06T08:18:27.388Z,28.10
2018-08-06T08:20:54.527Z,28.50
2018-08-06T08:23:21.563Z,28.90
2018-08-06T08:28:27.721Z,29.30
2018-08-06T08:30:54.737Z,29.40
2018-08-06T08:33:21.993Z,29.20
2018-08-06T08:35:49.948Z,29.50
2018-08-06T08:38:17.399Z,29.50
2018-08-06T08:43:25.572Z,29.70
2018-08-06T08:45:52.698Z,29.00
2018-08-06T08:48:19.722Z,29.30
2018-08-06T08:50:46.957Z,29.60
2018-08-06T08:53:14.833Z,29.90
2018-08-06T08:55:42.837Z,29.50
2018-08-06T09:00:48.999Z,30.00
2018-08-06T09:03:16.074Z,30.20
2018-08-06T09:05:43.924Z,30.40
2018-08-06T09:08:11.904Z,30.40
2018-08-06T09:10:38.977Z,30.60
2018-08-06T09:13:06.013Z,30.70
2018-08-06T09:15:34.351Z,30.90
2018-08-06T09:18:01.428Z,31.10
2018-08-06T09:20:28.479Z,30.60
2018-08-06T09:22:55.524Z,31.00
2018-08-06T09:25:22.620Z,30.60
2018-08-06T09:27:49.661Z,31.10
2018-08-06T09:30:16.683Z,31.40
2018-08-06T09:32:44.633Z,31.50
2018-08-06T09:35:11.664Z,31.70
2018-08-06T09:37:38.688Z,31.50
2018-08-06T09:40:06.082Z,31.60
2018-08-06T09:42:33.113Z,31.40
2018-08-06T09:45:01.011Z,30.90
2018-08-06T09:47:28.104Z,31.00
2018-08-06T09:49:56.366Z,29.80
2018-08-06T09:52:23.464Z,29.90
2018-08-06T09:54:51.353Z,30.60
2018-08-06T09:57:18.377Z,31.30
2018-08-06T09:59:46.340Z,31.70
2018-08-06T10:02:13.456Z,31.60
2018-08-06T10:04:40.464Z,31.90
2018-08-06T10:07:07.516Z,31.90
2018-08-06T10:12:14.064Z,30.70
2018-08-06T10:14:41.147Z,31.10
2018-08-06T10:17:08.166Z,31.40
2018-08-06T10:19:35.190Z,31.80
2018-08-06T10:22:02.262Z,31.70
2018-08-06T10:24:29.331Z,32.50
2018-08-06T10:26:56.311Z,32.60
2018-08-06T10:29:23.396Z,32.40
2018-08-06T10:31:50.404Z,31.50
2018-08-06T10:34:17.442Z,32.00
2018-08-06T10:36:44.504Z,32.50
2018-08-06T10:39:11.531Z,32.40
2018-08-06T10:41:38.553Z,32.50
2018-08-06T10:44:05.610Z,32.60
2018-08-06T10:46:32.721Z,32.20
2018-08-06T10:48:59.828Z,32.80
2018-08-06T10:51:27.437Z,31.90
2018-08-06T10:53:54.553Z,33.10
2018-08-06T10:56:21.983Z,33.30
2018-08-06T10:58:49.136Z,32.00
2018-08-06T11:01:16.568Z,32.60
2018-08-06T11:03:44.060Z,32.70
2018-08-06T11:06:11.310Z,32.30
2018-08-06T11:08:38.360Z,32.20
2018-08-06T11:11:05.384Z,32.70
2018-08-06T11:13:32.454Z,32.20
2018-08-06T11:15:59.650Z,32.70
2018-08-06T11:18:26.676Z,32.60
2018-08-06T11:20:53.731Z,32.90
2018-08-06T11:23:21.356Z,33.60
2018-08-06T11:25:48.381Z,32.90
2018-08-06T11:28:15.509Z,32.40
2018-08-06T11:30:42.546Z,33.00
2018-08-06T11:35:49.940Z,32.70
2018-08-06T11:38:16.934Z,32.40
2018-08-06T11:40:43.957Z,32.30
2018-08-06T11:43:11.061Z,33.40
2018-08-06T11:45:38.931Z,33.10
2018-08-06T11:48:05.943Z,32.50
2018-08-06T11:50:32.989Z,32.70
2018-08-06T11:52:59.997Z,33.10
2018-08-06T11:57:54.170Z,33.20
2018-08-06T12:00:21.178Z,33.20
2018-08-06T12:02:48.190Z,33.40
2018-08-06T12:05:15.244Z,33.00
2018-08-06T12:07:42.262Z,32.80
2018-08-06T12:12:36.424Z,33.30
2018-08-06T12:15:03.432Z,32.70
2018-08-06T12:19:57.555Z,33.70
2018-08-06T12:22:24.605Z,34.00
2018-08-06T12:24:51.584Z,34.30
2018-08-06T12:27:18.754Z,34.70
2018-08-06T12:29:45.688Z,33.80
2018-08-06T12:34:40.853Z,33.50
2018-08-06T12:37:07.869Z,34.10
2018-08-06T12:39:34.886Z,33.40
2018-08-06T12:44:29.023Z,33.60
2018-08-06T12:46:56.031Z,34.10
2018-08-06T12:51:50.286Z,34.00
2018-08-06T12:56:58.747Z,34.10
2018-08-06T13:01:53.193Z,33.90
2018-08-06T13:04:20.292Z,34.00
2018-08-06T13:06:47.317Z,34.10
2018-08-06T13:09:14.342Z,34.80
2018-08-06T13:11:41.388Z,35.00
2018-08-06T13:14:08.376Z,35.10
2018-08-06T13:16:35.378Z,34.90
2018-08-06T13:19:02.434Z,34.80
2018-08-06T13:21:29.454Z,34.80
2018-08-06T13:23:56.452Z,35.00
2018-08-06T13:28:50.605Z,34.00
2018-08-06T13:31:17.636Z,34.00
2018-08-06T13:33:44.712Z,33.90
2018-08-06T13:36:11.729Z,34.00
2018-08-06T13:38:38.768Z,33.70
2018-08-06T13:41:05.797Z,33.70
2018-08-06T13:43:32.791Z,33.40
2018-08-06T13:45:59.786Z,33.30
2018-08-06T13:48:26.855Z,33.30
2018-08-06T13:50:53.875Z,33.20
2018-08-06T13:53:20.913Z,33.00
2018-08-06T13:55:47.946Z,33.00
2018-08-06T13:58:14.961Z,33.20
2018-08-06T14:00:41.972Z,33.10
2018-08-06T14:03:09.030Z,32.90
2018-08-06T14:08:14.615Z,32.90
2018-08-06T14:10:41.615Z,33.00
2018-08-06T14:13:08.621Z,32.90
2018-08-06T14:15:35.673Z,33.00
2018-08-06T14:18:02.690Z,32.90
2018-08-06T14:20:29.716Z,32.80
2018-08-06T14:22:56.787Z,32.60
2018-08-06T14:25:24.793Z,32.40
2018-08-06T14:27:51.804Z,32.30
2018-08-06T14:30:18.859Z,32.40
2018-08-06T14:32:46.845Z,32.40
2018-08-06T14:35:13.861Z,32.10
2018-08-06T14:37:40.971Z,32.00
2018-08-06T14:40:07.967Z,31.80
2018-08-06T14:42:34.983Z,31.80
2018-08-06T14:45:02.041Z,31.80
2018-08-06T14:47:29.061Z,31.80
2018-08-06T14:49:56.069Z,31.80
2018-08-06T14:52:23.150Z,31.70
2018-08-06T14:54:50.573Z,31.70
2018-08-06T14:57:17.592Z,31.70
2018-08-06T14:59:44.680Z,31.60
2018-08-06T15:02:11.682Z,31.60
2018-08-06T15:04:38.718Z,31.50
2018-08-06T15:07:05.802Z,31.60
2018-08-06T15:09:32.814Z,31.40
2018-08-06T15:11:59.835Z,31.30
2018-08-06T15:14:26.908Z,31.20
2018-08-06T15:16:53.947Z,31.20
2018-08-06T15:19:22.154Z,31.10
2018-08-06T15:24:27.740Z,30.90
2018-08-06T15:26:54.815Z,30.30
2018-08-06T15:29:23.154Z,29.80
2018-08-06T15:31:50.179Z,29.90
2018-08-06T15:34:17.291Z,29.70
2018-08-06T15:36:44.296Z,29.30
2018-08-06T15:39:11.330Z,29.10
2018-08-06T15:41:38.420Z,28.70
2018-08-06T15:44:05.420Z,28.70
2018-08-06T15:46:32.480Z,28.70
2018-08-06T15:48:59.577Z,28.40
2018-08-06T15:51:26.591Z,28.40
2018-08-06T15:53:53.612Z,28.30
2018-08-06T15:56:20.683Z,28.10
2018-08-06T15:58:47.731Z,27.80
2018-08-06T16:01:14.759Z,27.60
2018-08-06T16:03:41.875Z,27.20
2018-08-06T16:06:08.851Z,27.20
2018-08-06T16:08:35.886Z,26.90
2018-08-06T16:11:03.834Z,26.90
2018-08-06T16:13:30.843Z,26.90
2018-08-06T16:15:57.903Z,26.80
2018-08-06T16:18:24.963Z,26.80
2018-08-06T16:20:52.557Z,26.80
2018-08-06T16:23:20.534Z,26.50
2018-08-06T16:25:48.573Z,26.50
2018-08-06T16:28:15.585Z,26.20
2018-08-06T16:30:42.617Z,26.10
2018-08-06T16:33:09.703Z,26.00
2018-08-06T16:35:36.732Z,26.00
2018-08-06T16:40:42.294Z,25.90
2018-08-06T16:43:09.331Z,25.90
2018-08-06T16:45:36.358Z,25.80
2018-08-06T16:48:03.424Z,25.60
2018-08-06T16:50:30.496Z,25.00
2018-08-06T16:52:57.504Z,24.30
2018-08-06T16:55:24.569Z,24.10
2018-08-06T16:57:51.584Z,23.60
2018-08-06T17:00:19.584Z,23.30
2018-08-06T17:02:46.694Z,23.40
2018-08-06T17:05:13.704Z,23.10
2018-08-06T17:07:40.727Z,23.10
2018-08-06T17:10:07.806Z,23.10
2018-08-06T17:12:34.880Z,22.90
2018-08-06T17:17:44.448Z,23.10
2018-08-06T17:20:11.512Z,22.70
2018-08-06T17:22:38.488Z,22.30
2018-08-06T17:25:05.641Z,21.90
2018-08-06T17:27:32.641Z,21.80
2018-08-06T17:29:59.657Z,22.00
2018-08-06T17:43:00.886Z,22.70
2018-08-06T17:45:33.936Z,22.70
2018-08-06T17:48:01.066Z,22.50
2018-08-06T17:50:29.109Z,22.30
2018-08-06T17:52:56.110Z,22.00
2018-08-06T17:55:24.124Z,21.90
2018-08-06T17:57:51.135Z,21.90
2018-08-06T18:00:18.134Z,21.90
2018-08-06T18:08:02.978Z,22.20
2018-08-06T18:10:29.988Z,22.10
2018-08-06T18:12:56.987Z,21.90
2018-08-06T18:15:24.109Z,21.80
2018-08-06T18:17:51.119Z,21.60
2018-08-06T18:20:18.103Z,21.60
2018-08-06T18:22:45.190Z,21.60
2018-08-06T18:25:12.719Z,21.10
2018-08-06T18:27:39.763Z,21.20
2018-08-06T18:30:06.810Z,21.10
2018-08-06T18:32:33.813Z,21.10
2018-08-06T18:35:02.060Z,21.10
2018-08-06T18:37:29.178Z,21.20
2018-08-06T18:39:59.205Z,21.10
2018-08-06T18:42:26.149Z,21.30
2018-08-06T18:50:14.062Z,21.30
2018-08-06T18:52:41.086Z,21.40
2018-08-06T18:55:08.073Z,21.30
2018-08-06T19:05:21.239Z,21.70
2018-08-06T19:07:51.434Z,21.40
2018-08-06T19:10:18.085Z,21.40
2018-08-06T19:12:45.168Z,21.30
2018-08-06T19:15:12.237Z,21.30
2018-08-06T19:17:39.292Z,21.30
2018-08-06T19:25:00.616Z,21.40
2018-08-06T19:27:27.643Z,21.50
2018-08-06T19:29:54.760Z,21.60
2018-08-06T19:32:22.770Z,21.10
2018-08-06T19:34:49.820Z,21.10
2018-08-06T19:37:16.894Z,20.90
2018-08-06T19:39:43.946Z,20.90
2018-08-06T19:42:10.975Z,20.60
2018-08-06T19:44:38.039Z,20.60
2018-08-06T19:49:44.010Z,20.30
2018-08-06T19:52:11.256Z,20.40
2018-08-06T19:54:38.372Z,20.60
2018-08-06T19:57:05.394Z,20.60
2018-08-06T19:59:32.379Z,20.80
2018-08-06T20:01:59.431Z,20.90
2018-08-06T20:04:26.521Z,20.80
2018-08-06T20:06:53.537Z,20.90
2018-08-06T20:09:20.541Z,20.80
2018-08-06T20:11:47.625Z,20.80
2018-08-06T20:14:15.485Z,20.50
2018-08-06T20:16:44.292Z,20.40
2018-08-06T20:19:10.844Z,20.30
2018-08-06T20:21:38.768Z,20.20
2018-08-06T20:24:05.822Z,20.30
2018-08-06T20:31:27.126Z,20.40
2018-08-06T20:33:54.393Z,20.30
2018-08-06T20:36:21.900Z,20.40
2018-08-06T20:38:49.883Z,20.40
2018-08-06T20:43:55.331Z,20.50
2018-08-06T20:46:22.444Z,20.30
2018-08-06T20:48:49.480Z,20.40
2018-08-06T20:51:16.524Z,20.50
2018-08-06T20:53:43.635Z,20.50
2018-08-06T20:56:10.653Z,20.30
2018-08-06T20:58:37.710Z,20.40
2018-08-06T21:01:04.834Z,20.40
2018-08-06T21:03:31.899Z,20.40
2018-08-06T21:05:58.967Z,20.20
2018-08-06T21:08:26.201Z,20.10
2018-08-06T21:10:53.605Z,20.10
2018-08-06T21:15:50.016Z,20.20
2018-08-06T21:18:17.850Z,20.20
2018-08-06T21:20:45.170Z,20.30
2018-08-06T21:23:12.393Z,20.20
2018-08-06T21:25:39.470Z,20.20
2018-08-06T21:28:06.554Z,20.20
2018-08-06T21:30:33.712Z,20.30
2018-08-06T21:33:00.767Z,20.40
2018-08-06T21:35:28.610Z,20.50
2018-08-06T21:40:47.751Z,20.50
2018-08-06T21:43:23.954Z,20.50
2018-08-06T21:48:36.747Z,20.50
2018-08-06T21:51:03.778Z,20.40
2018-08-06T21:53:31.258Z,20.30
2018-08-06T21:55:58.424Z,20.20
2018-08-06T22:01:03.504Z,20.40
2018-08-06T22:03:30.597Z,20.50
2018-08-06T22:05:57.618Z,20.70
2018-08-06T22:08:25.092Z,20.60
2018-08-06T22:10:52.235Z,20.70
2018-08-06T22:13:19.272Z,20.60
2018-08-06T22:20:54.702Z,20.70
2018-08-06T22:23:21.762Z,20.70
2018-08-06T22:28:27.820Z,20.10
2018-08-06T22:30:54.871Z,19.90
2018-08-06T22:33:21.902Z,19.90
2018-08-06T22:35:49.892Z,19.90
2018-08-06T22:38:16.940Z,20.00
2018-08-06T22:40:44.097Z,20.00
2018-08-06T22:43:11.842Z,20.10
2018-08-06T22:48:14.374Z,20.20
2018-08-06T22:53:08.994Z,20.20
2018-08-06T22:55:36.126Z,20.10
2018-08-06T23:08:22.140Z,20.30
2018-08-06T23:10:49.713Z,20.30
2018-08-06T23:13:16.939Z,20.40
2018-08-06T23:15:44.025Z,20.30
2018-08-06T23:18:11.184Z,20.20
2018-08-06T23:23:05.492Z,20.20
2018-08-06T23:25:33.103Z,20.10
2018-08-06T23:28:00.555Z,20.00
2018-08-06T23:30:27.574Z,19.90
2018-08-06T23:32:54.661Z,19.90
2018-08-06T23:35:21.691Z,19.80
2018-08-06T23:37:48.749Z,19.80
2018-08-06T23:40:16.428Z,19.70
2018-08-06T23:42:44.485Z,19.60
2018-08-06T23:45:11.597Z,19.60
2018-08-06T23:47:42.436Z,19.60
2018-08-06T23:50:09.564Z,19.60
2018-08-06T23:52:36.582Z,19.60
2018-08-06T23:57:43.524Z,19.40
